Burt, New York
Current Conditions -  °F | °C
As of 9:53 AM on Saturday 20 Dec 2014 (Local Time) from KIAG Reporting Station
Broken Clouds Broken Clouds  
Wind Chill: 22°   Ceiling: 2000
Heat Index: 28°   Visibility: 10mi
Dew Point: 23°   Wind: 6mph
Humidity: 81%   Direction: 270°W
Pressure: 30.3"   Gusts: NA
Location:  43.32°N, 78.71°W
Report Text: KIAG 201453Z 27005KT 10SM BKN020 BKN230 M02/M05 A3030 RMK AO2 SLP277 T10221050 53004
Loading
Personal Weather Stations






























Interactive Weather Map New forecast layout! Learn more

10-Day Weather Forecast

Advertisements
Track Severe Weather on mobile